createdAt,value
2022-12-31T00:01:23.874Z,5.04
2022-12-31T00:03:52.546Z,5.00
2022-12-31T00:06:27.076Z,5.01
2022-12-31T00:08:57.312Z,5.01
2022-12-31T00:11:27.130Z,5.01
2022-12-31T00:13:56.226Z,5.07
2022-12-31T00:16:27.492Z,5.12
2022-12-31T00:18:59.449Z,5.11
2022-12-31T00:21:30.499Z,5.11
2022-12-31T00:23:58.759Z,5.12
2022-12-31T00:26:30.043Z,5.14
2022-12-31T00:29:00.047Z,5.15
2022-12-31T00:31:33.809Z,5.17
2022-12-31T00:34:02.383Z,5.24
2022-12-31T00:36:36.390Z,5.26
2022-12-31T00:39:06.768Z,5.24
2022-12-31T00:41:35.121Z,5.24
2022-12-31T00:44:03.320Z,5.24
2022-12-31T00:46:32.086Z,5.23
2022-12-31T00:49:00.199Z,5.20
2022-12-31T00:51:28.703Z,5.17
2022-12-31T00:53:57.598Z,5.18
2022-12-31T00:56:28.463Z,5.18
2022-12-31T00:58:57.629Z,5.15
2022-12-31T01:01:27.205Z,5.13
2022-12-31T01:03:59.922Z,5.12
2022-12-31T01:06:28.060Z,5.10
2022-12-31T01:08:56.123Z,5.07
2022-12-31T01:11:24.719Z,5.04
2022-12-31T01:14:02.231Z,5.04
2022-12-31T01:16:30.209Z,5.01
2022-12-31T01:19:00.540Z,4.98
2022-12-31T01:21:29.389Z,5.00
2022-12-31T01:23:59.228Z,5.00
2022-12-31T01:26:28.029Z,4.99
2022-12-31T01:28:56.832Z,4.98
2022-12-31T01:31:26.021Z,5.01
2022-12-31T01:33:54.709Z,5.08
2022-12-31T01:36:26.633Z,5.07
2022-12-31T01:38:57.501Z,5.05
2022-12-31T01:41:31.381Z,5.07
2022-12-31T01:44:24.420Z,5.08
2022-12-31T01:46:56.738Z,5.05
2022-12-31T01:49:45.595Z,5.05
2022-12-31T01:52:17.448Z,5.08
2022-12-31T01:54:49.814Z,5.16
2022-12-31T01:57:18.403Z,5.15
2022-12-31T01:59:46.869Z,5.12
2022-12-31T02:02:16.068Z,5.10
2022-12-31T02:04:44.262Z,5.09
2022-12-31T02:07:12.908Z,5.06
2022-12-31T02:09:42.438Z,5.05
2022-12-31T02:12:11.093Z,5.05
2022-12-31T02:14:50.833Z,5.11
2022-12-31T02:17:25.082Z,5.11
2022-12-31T02:20:05.486Z,5.10
2022-12-31T02:23:10.998Z,5.10
2022-12-31T02:25:39.026Z,5.11
2022-12-31T02:28:28.891Z,5.13
2022-12-31T02:31:07.605Z,5.12
2022-12-31T02:33:46.624Z,5.14
2022-12-31T02:36:28.209Z,5.20
2022-12-31T02:38:56.761Z,5.19
2022-12-31T02:41:43.164Z,5.20
2022-12-31T02:44:33.320Z,5.19
2022-12-31T02:47:10.724Z,5.20
2022-12-31T02:49:57.575Z,5.20
2022-12-31T02:52:47.056Z,5.16
2022-12-31T02:55:53.652Z,5.16
2022-12-31T02:59:17.252Z,5.22
2022-12-31T03:02:09.042Z,5.20
2022-12-31T03:04:38.363Z,5.18
2022-12-31T03:07:26.612Z,5.19
2022-12-31T03:09:55.211Z,5.20
2022-12-31T03:12:46.183Z,5.18
2022-12-31T03:15:28.233Z,5.17
2022-12-31T03:17:56.107Z,5.16
2022-12-31T03:20:54.401Z,5.21
2022-12-31T03:23:31.976Z,5.21
2022-12-31T03:26:00.664Z,5.21
2022-12-31T03:28:31.015Z,5.21
2022-12-31T03:31:01.842Z,5.23
2022-12-31T03:33:36.542Z,5.23
2022-12-31T03:36:07.682Z,5.23
2022-12-31T03:38:36.450Z,5.25
2022-12-31T03:41:04.583Z,5.34
2022-12-31T03:43:32.620Z,5.37
2022-12-31T03:46:01.810Z,5.37
2022-12-31T03:48:29.980Z,5.39
2022-12-31T03:50:57.931Z,5.40
2022-12-31T03:53:26.008Z,5.41
2022-12-31T03:55:54.723Z,5.42
2022-12-31T03:58:22.996Z,5.43
2022-12-31T04:00:51.376Z,5.50
2022-12-31T04:03:19.490Z,5.52
2022-12-31T04:05:53.856Z,5.51
2022-12-31T04:08:22.362Z,5.51
2022-12-31T04:10:50.625Z,5.52
2022-12-31T04:13:18.623Z,5.52
2022-12-31T04:15:50.121Z,5.52
2022-12-31T04:18:18.088Z,5.55
2022-12-31T04:20:46.077Z,5.61
2022-12-31T04:23:14.093Z,5.62
2022-12-31T04:25:42.043Z,5.62
2022-12-31T04:28:10.987Z,5.63
2022-12-31T04:30:40.100Z,5.64
2022-12-31T04:33:08.137Z,5.65
2022-12-31T04:35:36.293Z,5.66
2022-12-31T04:38:04.428Z,5.66
2022-12-31T04:40:32.446Z,5.75
2022-12-31T04:43:00.487Z,5.76
2022-12-31T04:45:28.494Z,5.77
2022-12-31T04:47:56.481Z,5.79
2022-12-31T04:50:24.505Z,5.79
2022-12-31T04:52:52.499Z,5.79
2022-12-31T04:55:20.471Z,5.80
2022-12-31T04:57:48.536Z,5.82
2022-12-31T05:00:16.656Z,5.84
2022-12-31T05:02:44.707Z,5.90
2022-12-31T05:05:12.929Z,5.93
2022-12-31T05:07:40.935Z,5.93
2022-12-31T05:10:09.056Z,5.95
2022-12-31T05:12:37.025Z,5.96
2022-12-31T05:15:06.534Z,5.97
2022-12-31T05:17:34.574Z,5.97
2022-12-31T05:20:02.580Z,5.97
2022-12-31T05:22:30.707Z,5.99
2022-12-31T05:25:00.313Z,6.06
2022-12-31T05:27:31.416Z,6.08
2022-12-31T05:30:00.237Z,6.09
2022-12-31T05:32:28.612Z,6.11
2022-12-31T05:34:58.235Z,6.12
2022-12-31T05:37:29.858Z,6.13
2022-12-31T05:39:58.092Z,6.14
2022-12-31T05:42:27.001Z,6.14
2022-12-31T05:44:55.022Z,6.16
2022-12-31T05:47:23.545Z,6.23
2022-12-31T05:49:51.578Z,6.25
2022-12-31T05:52:20.184Z,6.26
2022-12-31T05:54:48.180Z,6.27
2022-12-31T05:57:16.292Z,6.27
2022-12-31T05:59:44.327Z,6.31
2022-12-31T06:02:12.379Z,6.31
2022-12-31T06:04:40.444Z,6.33
2022-12-31T06:07:08.808Z,6.40
2022-12-31T06:09:36.855Z,6.42
2022-12-31T06:12:06.765Z,6.43
2022-12-31T06:14:35.346Z,6.44
2022-12-31T06:17:03.675Z,6.45
2022-12-31T06:19:31.675Z,6.48
2022-12-31T06:21:59.742Z,6.49
2022-12-31T06:24:27.769Z,6.50
2022-12-31T06:26:55.762Z,6.51
2022-12-31T06:29:23.763Z,6.57
2022-12-31T06:31:51.764Z,6.59
2022-12-31T06:34:19.920Z,6.59
2022-12-31T06:36:48.076Z,6.62
2022-12-31T06:39:16.088Z,6.63
2022-12-31T06:41:44.111Z,6.65
2022-12-31T06:44:12.301Z,6.66
2022-12-31T06:46:40.493Z,6.68
2022-12-31T06:49:08.514Z,6.69
2022-12-31T06:51:36.712Z,6.77
2022-12-31T06:54:04.673Z,6.80
2022-12-31T06:56:34.669Z,6.81
2022-12-31T06:59:04.004Z,6.83
2022-12-31T07:01:58.050Z,6.84
2022-12-31T07:04:38.729Z,6.85
2022-12-31T07:07:17.208Z,6.84
2022-12-31T07:10:00.233Z,6.83
2022-12-31T07:13:01.550Z,6.85
2022-12-31T07:16:11.968Z,6.93
2022-12-31T07:19:11.284Z,6.93
2022-12-31T07:21:41.869Z,6.95
2022-12-31T07:24:11.399Z,6.96
2022-12-31T07:27:19.482Z,6.97
2022-12-31T07:30:02.092Z,6.97
2022-12-31T07:33:03.989Z,6.96
2022-12-31T07:35:41.128Z,6.94
2022-12-31T07:38:20.954Z,6.94
2022-12-31T07:40:59.159Z,7.02
2022-12-31T07:43:38.056Z,7.03
2022-12-31T07:46:40.232Z,7.03
2022-12-31T07:49:11.432Z,7.06
2022-12-31T07:51:40.260Z,7.07
2022-12-31T07:54:13.614Z,7.09
2022-12-31T07:56:44.192Z,7.10
2022-12-31T07:59:30.724Z,7.14
2022-12-31T08:02:13.865Z,7.24
2022-12-31T08:05:02.222Z,7.29
2022-12-31T08:07:47.505Z,7.31
2022-12-31T08:10:28.064Z,7.35
2022-12-31T08:13:01.262Z,7.38
2022-12-31T08:15:30.675Z,7.40
2022-12-31T08:17:59.303Z,7.42
2022-12-31T08:20:29.696Z,7.44
2022-12-31T08:23:24.679Z,7.47
2022-12-31T08:25:55.422Z,7.57
2022-12-31T08:28:29.586Z,7.59
2022-12-31T08:31:16.535Z,7.60
2022-12-31T08:34:06.188Z,7.64
2022-12-31T08:36:49.666Z,7.66
2022-12-31T08:39:23.436Z,7.67
2022-12-31T08:41:57.672Z,7.67
2022-12-31T08:44:46.039Z,7.67
2022-12-31T08:47:38.593Z,7.71
2022-12-31T08:50:13.183Z,7.77
2022-12-31T08:52:41.491Z,7.78
2022-12-31T08:55:16.719Z,7.79
2022-12-31T08:58:05.074Z,7.80
2022-12-31T09:00:34.600Z,7.84
2022-12-31T09:03:32.071Z,7.86
2022-12-31T09:06:08.969Z,7.86
2022-12-31T09:08:49.354Z,7.86
2022-12-31T09:11:30.010Z,7.88
2022-12-31T09:14:36.847Z,7.96
2022-12-31T09:17:31.694Z,8.00
2022-12-31T09:19:59.986Z,8.05
2022-12-31T09:22:28.759Z,8.07
2022-12-31T09:24:57.134Z,8.11
2022-12-31T09:27:48.785Z,8.15
2022-12-31T09:30:18.852Z,8.21
2022-12-31T09:33:12.750Z,8.26
2022-12-31T09:35:56.924Z,8.38
2022-12-31T09:38:55.173Z,8.50
2022-12-31T09:41:47.716Z,8.56
2022-12-31T09:44:28.798Z,8.64
2022-12-31T09:47:28.914Z,8.71
2022-12-31T09:50:21.310Z,8.77
2022-12-31T09:52:55.140Z,8.83
2022-12-31T09:55:42.026Z,8.87
2022-12-31T09:58:23.762Z,8.92
2022-12-31T10:01:21.092Z,9.02
2022-12-31T10:04:13.873Z,9.06
2022-12-31T10:06:41.826Z,9.09
2022-12-31T10:09:25.163Z,9.12
2022-12-31T10:12:02.300Z,9.19
2022-12-31T10:14:52.071Z,9.24
2022-12-31T10:17:44.428Z,9.32
2022-12-31T10:20:45.084Z,9.42
2022-12-31T10:23:21.081Z,9.44
2022-12-31T10:26:12.068Z,9.45
2022-12-31T10:28:56.117Z,9.47
2022-12-31T10:31:36.359Z,9.49
2022-12-31T10:34:41.024Z,9.49
2022-12-31T10:37:21.500Z,9.48
2022-12-31T10:40:17.774Z,9.49
2022-12-31T10:43:36.753Z,9.51
2022-12-31T10:46:35.697Z,9.60
2022-12-31T10:49:34.701Z,9.70
2022-12-31T10:52:17.829Z,9.76
2022-12-31T10:55:16.753Z,9.84
2022-12-31T10:58:04.509Z,9.97
2022-12-31T11:00:57.914Z,10.08
2022-12-31T11:04:04.924Z,10.16
2022-12-31T11:07:14.292Z,10.20
2022-12-31T11:09:57.223Z,10.31
2022-12-31T11:12:47.468Z,10.33
2022-12-31T11:15:21.703Z,10.34
2022-12-31T11:18:11.391Z,10.35
2022-12-31T11:20:58.411Z,10.38
2022-12-31T11:23:37.226Z,10.42
2022-12-31T11:26:46.917Z,10.41
2022-12-31T11:29:54.053Z,10.39
2022-12-31T11:32:22.030Z,10.41
2022-12-31T11:35:15.925Z,10.45
2022-12-31T11:37:58.334Z,10.44
2022-12-31T11:40:42.170Z,10.43
2022-12-31T11:43:23.764Z,10.42
2022-12-31T11:46:13.293Z,10.41
2022-12-31T11:49:19.241Z,10.39
2022-12-31T11:52:08.113Z,10.38
2022-12-31T11:54:53.945Z,10.41
2022-12-31T11:57:27.541Z,10.47
2022-12-31T12:00:22.985Z,10.49
2022-12-31T12:03:00.867Z,10.50
2022-12-31T12:05:30.164Z,10.51
2022-12-31T12:07:58.438Z,10.54
2022-12-31T12:10:36.547Z,10.57
2022-12-31T12:13:34.741Z,10.57
2022-12-31T12:16:07.560Z,10.58
2022-12-31T12:18:45.984Z,10.61
2022-12-31T12:21:25.440Z,10.70
2022-12-31T12:24:26.381Z,10.72
2022-12-31T12:26:57.916Z,10.74
2022-12-31T12:29:35.871Z,10.76
2022-12-31T12:32:16.327Z,10.78
2022-12-31T12:34:49.641Z,10.80
2022-12-31T12:37:27.189Z,10.81
2022-12-31T12:40:01.099Z,10.81
2022-12-31T12:42:30.044Z,10.81
2022-12-31T12:45:03.519Z,10.83
2022-12-31T12:47:32.179Z,10.91
2022-12-31T12:50:01.092Z,10.93
2022-12-31T12:52:59.208Z,10.93
2022-12-31T12:55:41.063Z,10.95
2022-12-31T12:58:44.650Z,10.95
2022-12-31T13:01:51.539Z,10.96
2022-12-31T13:04:46.643Z,10.95
2022-12-31T13:07:33.458Z,10.92
2022-12-31T13:10:07.472Z,10.89
2022-12-31T13:16:11.331Z,10.94
2022-12-31T13:18:53.723Z,10.92
2022-12-31T13:21:21.775Z,10.92
2022-12-31T13:24:14.119Z,10.93
2022-12-31T13:26:50.689Z,10.93
2022-12-31T13:29:23.017Z,10.92
2022-12-31T13:31:52.985Z,10.91
2022-12-31T13:34:42.608Z,10.89
2022-12-31T13:37:41.444Z,10.91
2022-12-31T13:40:25.037Z,10.96
2022-12-31T13:43:13.320Z,10.95
2022-12-31T13:45:44.771Z,10.93
2022-12-31T13:48:30.515Z,10.92
2022-12-31T13:51:06.094Z,10.92
2022-12-31T13:53:43.888Z,10.90
2022-12-31T13:56:19.948Z,10.86
2022-12-31T13:59:16.921Z,10.81
2022-12-31T14:01:54.040Z,10.77
2022-12-31T14:04:33.618Z,10.75
2022-12-31T14:07:13.910Z,10.77
2022-12-31T14:09:42.677Z,10.74
2022-12-31T14:12:13.630Z,10.70
2022-12-31T14:15:18.029Z,10.67
2022-12-31T14:18:09.987Z,10.63
2022-12-31T14:20:48.395Z,10.58
2022-12-31T14:23:25.990Z,10.53
2022-12-31T14:26:28.677Z,10.48
2022-12-31T14:29:08.783Z,10.41
2022-12-31T14:31:49.209Z,10.38
2022-12-31T14:34:39.377Z,10.40
2022-12-31T14:37:38.731Z,10.38
2022-12-31T14:40:12.826Z,10.35
2022-12-31T14:43:02.563Z,10.32
2022-12-31T14:45:56.068Z,10.29
2022-12-31T14:49:12.445Z,10.26
2022-12-31T14:51:40.518Z,10.22
2022-12-31T14:54:29.429Z,10.23
2022-12-31T14:56:57.533Z,10.27
2022-12-31T14:59:33.335Z,10.26
2022-12-31T15:02:34.988Z,10.25
2022-12-31T15:05:12.579Z,10.26
2022-12-31T15:07:43.449Z,10.26
2022-12-31T15:10:33.317Z,10.26
2022-12-31T15:13:20.972Z,10.25
2022-12-31T15:16:15.284Z,10.28
2022-12-31T15:19:05.119Z,10.34
2022-12-31T15:21:45.085Z,10.34
2022-12-31T15:24:31.728Z,10.35
2022-12-31T15:27:03.171Z,10.36
2022-12-31T15:29:34.173Z,10.36
2022-12-31T15:32:08.102Z,10.36
2022-12-31T15:34:36.978Z,10.35
2022-12-31T15:37:27.221Z,10.34
2022-12-31T15:40:25.469Z,10.36
2022-12-31T15:43:10.013Z,10.40
2022-12-31T15:45:39.728Z,10.39
2022-12-31T15:48:18.327Z,10.37
2022-12-31T15:50:47.669Z,10.35
2022-12-31T15:53:40.438Z,10.35
2022-12-31T15:56:18.989Z,10.33
2022-12-31T15:58:50.145Z,10.31
2022-12-31T16:01:30.793Z,10.30
2022-12-31T16:04:05.781Z,10.35
2022-12-31T16:06:38.601Z,10.34
2022-12-31T16:09:10.721Z,10.32
2022-12-31T16:11:42.850Z,10.31
2022-12-31T16:14:23.093Z,10.30
2022-12-31T16:16:55.544Z,10.28
2022-12-31T16:19:32.452Z,10.26
2022-12-31T16:22:13.576Z,10.24
2022-12-31T16:25:19.373Z,10.29
2022-12-31T16:27:31.691Z,10.28
2022-12-31T16:30:18.753Z,10.27
2022-12-31T16:32:50.091Z,10.26
2022-12-31T16:35:31.265Z,10.26
2022-12-31T16:38:08.855Z,10.25
2022-12-31T16:40:36.974Z,10.23
2022-12-31T16:43:18.524Z,10.23
2022-12-31T16:45:46.789Z,10.29
2022-12-31T16:48:17.871Z,10.30
2022-12-31T16:50:51.022Z,10.30
2022-12-31T16:53:22.554Z,10.32
2022-12-31T16:55:56.896Z,10.35
2022-12-31T16:58:37.862Z,10.38
2022-12-31T17:01:23.456Z,10.44
2022-12-31T17:03:59.630Z,10.53
2022-12-31T17:06:33.614Z,10.56
2022-12-31T17:09:14.018Z,10.58
2022-12-31T17:11:43.518Z,10.63
2022-12-31T17:14:14.125Z,10.65
2022-12-31T17:17:04.254Z,10.68
2022-12-31T17:19:35.290Z,10.72
2022-12-31T17:22:13.265Z,10.80
2022-12-31T17:24:41.762Z,10.82
2022-12-31T17:27:10.658Z,10.82
2022-12-31T17:29:38.680Z,10.84
2022-12-31T17:32:30.082Z,10.85
2022-12-31T17:34:58.190Z,10.88
2022-12-31T17:37:30.886Z,10.94
2022-12-31T17:40:32.273Z,10.99
2022-12-31T17:42:49.849Z,10.98
2022-12-31T17:45:22.482Z,10.98
2022-12-31T17:47:53.878Z,10.97
2022-12-31T17:50:24.888Z,10.96
2022-12-31T17:53:09.711Z,10.97
2022-12-31T17:55:38.039Z,11.02
2022-12-31T17:58:06.931Z,11.01
2022-12-31T18:00:37.073Z,10.99
2022-12-31T18:03:05.115Z,10.98
2022-12-31T18:05:33.227Z,10.97
2022-12-31T18:08:01.265Z,10.95
2022-12-31T18:10:33.135Z,10.94
2022-12-31T18:13:02.494Z,10.91
2022-12-31T18:15:31.305Z,10.92
2022-12-31T18:17:59.480Z,10.98
2022-12-31T18:20:27.902Z,10.99
2022-12-31T18:22:56.069Z,10.99
2022-12-31T18:25:24.424Z,10.98
2022-12-31T18:27:52.898Z,10.98
2022-12-31T18:30:20.908Z,10.96
2022-12-31T18:32:49.072Z,10.94
2022-12-31T18:35:57.587Z,10.93
2022-12-31T18:38:14.257Z,10.97
2022-12-31T18:40:46.807Z,10.95
2022-12-31T18:43:17.600Z,10.92
2022-12-31T18:45:47.646Z,10.89
2022-12-31T18:48:16.717Z,10.87
2022-12-31T18:50:45.788Z,10.85
2022-12-31T18:53:20.342Z,10.83
2022-12-31T18:55:54.274Z,10.82
2022-12-31T18:58:22.722Z,10.86
2022-12-31T19:00:51.748Z,10.84
2022-12-31T19:03:23.342Z,10.82
2022-12-31T19:05:52.155Z,10.81
2022-12-31T19:08:22.392Z,10.80
2022-12-31T19:10:52.278Z,10.78
2022-12-31T19:13:21.165Z,10.76
2022-12-31T19:15:55.692Z,10.77
2022-12-31T19:18:23.799Z,10.82
2022-12-31T19:20:52.483Z,10.83
2022-12-31T19:23:22.518Z,10.82
2022-12-31T19:25:50.616Z,10.82
2022-12-31T19:28:20.288Z,10.82
2022-12-31T19:30:48.611Z,10.81
2022-12-31T19:33:17.255Z,10.80
2022-12-31T19:35:46.304Z,10.81
2022-12-31T19:38:23.407Z,10.86
2022-12-31T19:40:52.898Z,10.86
2022-12-31T19:43:23.134Z,10.84
2022-12-31T19:45:52.122Z,10.83
2022-12-31T19:48:28.576Z,10.82
2022-12-31T19:51:00.373Z,10.81
2022-12-31T19:53:28.992Z,10.79
2022-12-31T19:55:57.019Z,10.76
2022-12-31T19:58:26.791Z,10.76
2022-12-31T20:01:02.480Z,10.79
2022-12-31T20:03:33.370Z,10.79
2022-12-31T20:06:02.889Z,10.78
2022-12-31T20:08:31.008Z,10.77
2022-12-31T20:10:59.123Z,10.75
2022-12-31T20:13:27.636Z,10.74
2022-12-31T20:15:55.661Z,10.72
2022-12-31T20:18:25.013Z,10.72
2022-12-31T20:20:56.018Z,10.77
2022-12-31T20:23:24.310Z,10.75
2022-12-31T20:26:00.269Z,10.73
2022-12-31T20:28:28.837Z,10.72
2022-12-31T20:30:56.917Z,10.69
2022-12-31T20:33:25.001Z,10.66
2022-12-31T20:35:53.067Z,10.63
2022-12-31T20:38:21.192Z,10.62
2022-12-31T20:40:49.624Z,10.65
2022-12-31T20:43:17.659Z,10.64
2022-12-31T20:45:45.770Z,10.61
2022-12-31T20:48:13.811Z,10.59
2022-12-31T20:50:43.157Z,10.57
2022-12-31T20:53:11.161Z,10.54
2022-12-31T20:55:39.187Z,10.51
2022-12-31T20:58:07.289Z,10.47
2022-12-31T21:00:35.279Z,10.46
2022-12-31T21:03:14.195Z,10.51
2022-12-31T21:05:51.857Z,10.50
2022-12-31T21:08:20.958Z,10.49
2022-12-31T21:10:51.089Z,10.48
2022-12-31T21:13:23.221Z,10.46
2022-12-31T21:15:55.005Z,10.45
2022-12-31T21:18:24.072Z,10.43
2022-12-31T21:20:53.939Z,10.41
2022-12-31T21:23:22.990Z,10.42
2022-12-31T21:25:51.021Z,10.47
2022-12-31T21:28:19.217Z,10.48
2022-12-31T21:30:47.320Z,10.45
2022-12-31T21:33:15.367Z,10.45
2022-12-31T21:35:48.670Z,10.45
2022-12-31T21:38:21.508Z,10.45
2022-12-31T21:40:53.090Z,10.44
2022-12-31T21:43:21.146Z,10.42
2022-12-31T21:46:00.722Z,10.42
2022-12-31T21:48:28.865Z,10.43
2022-12-31T21:51:07.993Z,10.49
2022-12-31T21:53:37.385Z,10.52
2022-12-31T21:56:09.586Z,10.52
2022-12-31T21:58:39.429Z,10.53
2022-12-31T22:01:26.530Z,10.54
2022-12-31T22:03:54.699Z,10.54
2022-12-31T22:06:24.399Z,10.53
2022-12-31T22:08:55.296Z,10.51
2022-12-31T22:11:26.525Z,10.50
2022-12-31T22:13:55.524Z,10.49
2022-12-31T22:16:23.725Z,10.54
2022-12-31T22:18:55.055Z,10.54
2022-12-31T22:21:25.605Z,10.53
2022-12-31T22:23:56.554Z,10.53
2022-12-31T22:26:27.629Z,10.53
2022-12-31T22:28:59.866Z,10.52
2022-12-31T22:31:32.320Z,10.51
2022-12-31T22:34:00.413Z,10.49
2022-12-31T22:36:28.425Z,10.47
2022-12-31T22:38:58.557Z,10.46
2022-12-31T22:41:27.975Z,10.51
2022-12-31T22:44:05.821Z,10.50
2022-12-31T22:46:35.471Z,10.48
2022-12-31T22:49:04.861Z,10.48
2022-12-31T22:51:55.849Z,10.47
2022-12-31T22:54:21.527Z,10.45
2022-12-31T22:56:49.694Z,10.42
2022-12-31T22:59:17.763Z,10.40
2022-12-31T23:01:45.897Z,10.37
2022-12-31T23:04:14.027Z,10.36
2022-12-31T23:06:45.432Z,10.40
2022-12-31T23:09:34.542Z,10.39
2022-12-31T23:12:04.689Z,10.37
2022-12-31T23:14:52.275Z,10.37
2022-12-31T23:17:44.717Z,10.37
2022-12-31T23:20:37.549Z,10.37
2022-12-31T23:23:10.081Z,10.35
2022-12-31T23:25:47.982Z,10.34
2022-12-31T23:28:24.660Z,10.32
2022-12-31T23:30:53.214Z,10.32
2022-12-31T23:33:24.617Z,10.36
2022-12-31T23:36:06.641Z,10.36
2022-12-31T23:38:41.536Z,10.35
2022-12-31T23:41:14.668Z,10.35
2022-12-31T23:43:43.929Z,10.34
2022-12-31T23:46:12.848Z,10.33
2022-12-31T23:48:40.945Z,10.31
2022-12-31T23:51:09.306Z,10.28
2022-12-31T23:53:38.723Z,10.27
2022-12-31T23:56:13.904Z,10.25
2022-12-31T23:58:46.079Z,10.23
